sensor_id;sensor_type;location;lat;lon;timestamp;P1;durP1;ratioP1;P2;durP2;ratioP2
85640;SDS011;76065;47.182;27.506;2024-03-25T00:00:13;10.93;;;5.50;;
85640;SDS011;76065;47.182;27.506;2024-03-25T00:02:39;8.23;;;3.80;;
85640;SDS011;76065;47.182;27.506;2024-03-25T00:05:06;11.13;;;6.05;;
85640;SDS011;76065;47.182;27.506;2024-03-25T00:07:36;10.93;;;5.45;;
85640;SDS011;76065;47.182;27.506;2024-03-25T00:10:02;10.35;;;5.20;;
85640;SDS011;76065;47.182;27.506;2024-03-25T00:12:29;10.52;;;6.07;;
85640;SDS011;76065;47.182;27.506;2024-03-25T00:14:54;10.07;;;5.10;;
85640;SDS011;76065;47.182;27.506;2024-03-25T00:17:20;11.35;;;5.85;;
85640;SDS011;76065;47.182;27.506;2024-03-25T00:19:46;13.25;;;5.85;;
85640;SDS011;76065;47.182;27.506;2024-03-25T00:22:18;12.00;;;5.00;;
85640;SDS011;76065;47.182;27.506;2024-03-25T00:24:47;9.23;;;4.32;;
85640;SDS011;76065;47.182;27.506;2024-03-25T00:27:13;10.23;;;4.47;;
85640;SDS011;76065;47.182;27.506;2024-03-25T00:29:39;10.40;;;4.95;;
85640;SDS011;76065;47.182;27.506;2024-03-25T00:32:05;9.50;;;5.65;;
85640;SDS011;76065;47.182;27.506;2024-03-25T00:34:31;12.75;;;5.40;;
85640;SDS011;76065;47.182;27.506;2024-03-25T00:36:57;11.25;;;5.78;;
85640;SDS011;76065;47.182;27.506;2024-03-25T00:39:24;12.38;;;5.70;;
85640;SDS011;76065;47.182;27.506;2024-03-25T00:41:50;13.25;;;5.47;;
85640;SDS011;76065;47.182;27.506;2024-03-25T00:44:16;11.48;;;6.50;;
85640;SDS011;76065;47.182;27.506;2024-03-25T00:46:42;10.43;;;5.47;;
85640;SDS011;76065;47.182;27.506;2024-03-25T00:49:08;9.15;;;5.15;;
85640;SDS011;76065;47.182;27.506;2024-03-25T00:51:35;9.48;;;5.03;;
85640;SDS011;76065;47.182;27.506;2024-03-25T00:54:01;11.15;;;5.03;;
85640;SDS011;76065;47.182;27.506;2024-03-25T00:56:28;13.18;;;5.25;;
85640;SDS011;76065;47.182;27.506;2024-03-25T00:58:54;11.70;;;5.43;;
85640;SDS011;76065;47.182;27.506;2024-03-25T01:01:20;11.77;;;5.80;;
85640;SDS011;76065;47.182;27.506;2024-03-25T01:03:46;13.07;;;6.00;;
85640;SDS011;76065;47.182;27.506;2024-03-25T01:06:11;10.23;;;4.63;;
85640;SDS011;76065;47.182;27.506;2024-03-25T01:08:37;10.77;;;6.10;;
85640;SDS011;76065;47.182;27.506;2024-03-25T01:11:03;11.45;;;6.53;;
85640;SDS011;76065;47.182;27.506;2024-03-25T01:13:29;8.63;;;5.50;;
85640;SDS011;76065;47.182;27.506;2024-03-25T01:15:55;9.15;;;5.80;;
85640;SDS011;76065;47.182;27.506;2024-03-25T01:18:21;10.00;;;5.50;;
85640;SDS011;76065;47.182;27.506;2024-03-25T01:20:46;11.43;;;6.10;;
85640;SDS011;76065;47.182;27.506;2024-03-25T01:23:12;10.25;;;5.80;;
85640;SDS011;76065;47.182;27.506;2024-03-25T01:25:37;11.30;;;6.03;;
85640;SDS011;76065;47.182;27.506;2024-03-25T01:28:03;9.93;;;5.35;;
85640;SDS011;76065;47.182;27.506;2024-03-25T01:30:29;11.77;;;5.75;;
85640;SDS011;76065;47.182;27.506;2024-03-25T01:32:55;10.65;;;6.10;;
85640;SDS011;76065;47.182;27.506;2024-03-25T01:35:20;15.77;;;5.65;;
85640;SDS011;76065;47.182;27.506;2024-03-25T01:37:46;11.27;;;5.93;;
85640;SDS011;76065;47.182;27.506;2024-03-25T01:40:11;11.85;;;6.22;;
85640;SDS011;76065;47.182;27.506;2024-03-25T01:42:37;12.63;;;5.95;;
85640;SDS011;76065;47.182;27.506;2024-03-25T01:45:03;11.43;;;5.88;;
85640;SDS011;76065;47.182;27.506;2024-03-25T01:47:32;10.75;;;5.13;;
85640;SDS011;76065;47.182;27.506;2024-03-25T01:50:00;8.18;;;4.57;;
85640;SDS011;76065;47.182;27.506;2024-03-25T01:52:28;8.93;;;4.65;;
85640;SDS011;76065;47.182;27.506;2024-03-25T01:54:55;10.07;;;5.65;;
85640;SDS011;76065;47.182;27.506;2024-03-25T01:57:21;8.82;;;5.38;;
85640;SDS011;76065;47.182;27.506;2024-03-25T01:59:47;8.90;;;4.00;;
85640;SDS011;76065;47.182;27.506;2024-03-25T02:02:13;9.07;;;5.03;;
85640;SDS011;76065;47.182;27.506;2024-03-25T02:04:39;10.27;;;5.55;;
85640;SDS011;76065;47.182;27.506;2024-03-25T02:07:07;9.90;;;5.85;;
85640;SDS011;76065;47.182;27.506;2024-03-25T02:09:33;10.60;;;5.18;;
85640;SDS011;76065;47.182;27.506;2024-03-25T02:14:27;11.65;;;6.68;;
85640;SDS011;76065;47.182;27.506;2024-03-25T02:16:53;10.20;;;5.50;;
85640;SDS011;76065;47.182;27.506;2024-03-25T02:19:19;12.13;;;6.43;;
85640;SDS011;76065;47.182;27.506;2024-03-25T02:21:47;12.80;;;6.90;;
85640;SDS011;76065;47.182;27.506;2024-03-25T02:24:13;15.18;;;7.90;;
85640;SDS011;76065;47.182;27.506;2024-03-25T02:26:40;11.82;;;6.75;;
85640;SDS011;76065;47.182;27.506;2024-03-25T02:29:09;13.57;;;7.70;;
85640;SDS011;76065;47.182;27.506;2024-03-25T02:31:34;16.25;;;7.88;;
85640;SDS011;76065;47.182;27.506;2024-03-25T02:34:00;14.18;;;6.85;;
85640;SDS011;76065;47.182;27.506;2024-03-25T02:36:26;15.95;;;8.23;;
85640;SDS011;76065;47.182;27.506;2024-03-25T02:38:52;17.05;;;9.40;;
85640;SDS011;76065;47.182;27.506;2024-03-25T02:41:18;15.27;;;8.23;;
85640;SDS011;76065;47.182;27.506;2024-03-25T02:43:44;17.45;;;7.65;;
85640;SDS011;76065;47.182;27.506;2024-03-25T02:46:09;15.45;;;8.60;;
85640;SDS011;76065;47.182;27.506;2024-03-25T02:48:35;17.90;;;9.48;;
85640;SDS011;76065;47.182;27.506;2024-03-25T02:51:01;15.88;;;7.78;;
85640;SDS011;76065;47.182;27.506;2024-03-25T02:53:26;18.98;;;8.82;;
85640;SDS011;76065;47.182;27.506;2024-03-25T02:55:52;16.45;;;8.27;;
85640;SDS011;76065;47.182;27.506;2024-03-25T02:58:17;15.15;;;7.80;;
85640;SDS011;76065;47.182;27.506;2024-03-25T03:00:43;15.23;;;8.23;;
85640;SDS011;76065;47.182;27.506;2024-03-25T03:03:08;16.30;;;8.13;;
85640;SDS011;76065;47.182;27.506;2024-03-25T03:05:34;16.02;;;8.57;;
85640;SDS011;76065;47.182;27.506;2024-03-25T03:08:00;15.82;;;7.65;;
85640;SDS011;76065;47.182;27.506;2024-03-25T03:10:26;18.98;;;8.80;;
85640;SDS011;76065;47.182;27.506;2024-03-25T03:12:51;15.90;;;9.40;;
85640;SDS011;76065;47.182;27.506;2024-03-25T03:15:17;16.75;;;8.57;;
85640;SDS011;76065;47.182;27.506;2024-03-25T03:17:42;19.73;;;8.80;;
85640;SDS011;76065;47.182;27.506;2024-03-25T03:20:08;22.48;;;10.32;;
85640;SDS011;76065;47.182;27.506;2024-03-25T03:22:35;15.90;;;8.20;;
85640;SDS011;76065;47.182;27.506;2024-03-25T03:25:01;20.27;;;9.25;;
85640;SDS011;76065;47.182;27.506;2024-03-25T03:27:26;19.63;;;9.23;;
85640;SDS011;76065;47.182;27.506;2024-03-25T03:29:52;19.55;;;9.52;;
85640;SDS011;76065;47.182;27.506;2024-03-25T03:32:18;18.38;;;8.70;;
85640;SDS011;76065;47.182;27.506;2024-03-25T03:34:43;15.27;;;7.80;;
85640;SDS011;76065;47.182;27.506;2024-03-25T03:37:09;17.25;;;8.35;;
85640;SDS011;76065;47.182;27.506;2024-03-25T03:39:35;18.92;;;7.85;;
85640;SDS011;76065;47.182;27.506;2024-03-25T03:42:00;15.55;;;7.97;;
85640;SDS011;76065;47.182;27.506;2024-03-25T03:44:26;14.90;;;8.60;;
85640;SDS011;76065;47.182;27.506;2024-03-25T03:46:51;17.02;;;8.15;;
85640;SDS011;76065;47.182;27.506;2024-03-25T03:49:17;15.52;;;8.15;;
85640;SDS011;76065;47.182;27.506;2024-03-25T03:51:43;14.45;;;6.95;;
85640;SDS011;76065;47.182;27.506;2024-03-25T03:54:08;19.13;;;7.88;;
85640;SDS011;76065;47.182;27.506;2024-03-25T03:56:34;14.52;;;6.53;;
85640;SDS011;76065;47.182;27.506;2024-03-25T03:58:59;12.55;;;6.70;;
85640;SDS011;76065;47.182;27.506;2024-03-25T04:01:25;15.18;;;7.60;;
85640;SDS011;76065;47.182;27.506;2024-03-25T04:03:50;16.75;;;7.93;;
85640;SDS011;76065;47.182;27.506;2024-03-25T04:06:17;15.40;;;8.13;;
85640;SDS011;76065;47.182;27.506;2024-03-25T04:08:42;13.25;;;6.85;;
85640;SDS011;76065;47.182;27.506;2024-03-25T04:11:08;17.52;;;7.82;;
85640;SDS011;76065;47.182;27.506;2024-03-25T04:13:34;14.05;;;7.90;;
85640;SDS011;76065;47.182;27.506;2024-03-25T04:16:01;15.00;;;7.00;;
85640;SDS011;76065;47.182;27.506;2024-03-25T04:18:29;16.30;;;7.68;;
85640;SDS011;76065;47.182;27.506;2024-03-25T04:20:55;13.48;;;7.40;;
85640;SDS011;76065;47.182;27.506;2024-03-25T04:23:20;13.38;;;6.85;;
85640;SDS011;76065;47.182;27.506;2024-03-25T04:25:46;15.48;;;8.35;;
85640;SDS011;76065;47.182;27.506;2024-03-25T04:28:11;15.15;;;8.05;;
85640;SDS011;76065;47.182;27.506;2024-03-25T04:30:37;15.30;;;8.15;;
85640;SDS011;76065;47.182;27.506;2024-03-25T04:33:03;14.63;;;7.22;;
85640;SDS011;76065;47.182;27.506;2024-03-25T04:35:29;14.65;;;8.23;;
85640;SDS011;76065;47.182;27.506;2024-03-25T04:37:54;14.82;;;8.32;;
85640;SDS011;76065;47.182;27.506;2024-03-25T04:40:20;14.77;;;7.70;;
85640;SDS011;76065;47.182;27.506;2024-03-25T04:42:46;13.65;;;7.65;;
85640;SDS011;76065;47.182;27.506;2024-03-25T04:45:12;16.40;;;7.68;;
85640;SDS011;76065;47.182;27.506;2024-03-25T04:47:38;15.27;;;6.57;;
85640;SDS011;76065;47.182;27.506;2024-03-25T04:50:04;15.50;;;7.95;;
85640;SDS011;76065;47.182;27.506;2024-03-25T04:52:30;15.30;;;7.35;;
85640;SDS011;76065;47.182;27.506;2024-03-25T04:54:56;14.38;;;7.40;;
85640;SDS011;76065;47.182;27.506;2024-03-25T04:57:22;17.90;;;7.97;;
85640;SDS011;76065;47.182;27.506;2024-03-25T04:59:48;12.35;;;6.43;;
85640;SDS011;76065;47.182;27.506;2024-03-25T05:02:13;14.35;;;6.70;;
85640;SDS011;76065;47.182;27.506;2024-03-25T05:04:39;11.88;;;7.22;;
85640;SDS011;76065;47.182;27.506;2024-03-25T05:07:04;13.07;;;7.40;;
85640;SDS011;76065;47.182;27.506;2024-03-25T05:09:30;14.27;;;6.97;;
85640;SDS011;76065;47.182;27.506;2024-03-25T05:11:56;12.77;;;7.40;;
85640;SDS011;76065;47.182;27.506;2024-03-25T05:14:22;13.60;;;7.38;;
85640;SDS011;76065;47.182;27.506;2024-03-25T05:16:47;12.82;;;6.85;;
85640;SDS011;76065;47.182;27.506;2024-03-25T05:19:14;12.63;;;6.25;;
85640;SDS011;76065;47.182;27.506;2024-03-25T05:21:40;12.75;;;7.72;;
85640;SDS011;76065;47.182;27.506;2024-03-25T05:24:06;13.48;;;6.63;;
85640;SDS011;76065;47.182;27.506;2024-03-25T05:26:31;14.05;;;7.30;;
85640;SDS011;76065;47.182;27.506;2024-03-25T05:28:57;15.45;;;7.38;;
85640;SDS011;76065;47.182;27.506;2024-03-25T05:31:23;15.45;;;7.97;;
85640;SDS011;76065;47.182;27.506;2024-03-25T05:33:49;16.88;;;8.15;;
85640;SDS011;76065;47.182;27.506;2024-03-25T05:36:15;14.05;;;7.60;;
85640;SDS011;76065;47.182;27.506;2024-03-25T05:38:40;17.17;;;9.65;;
85640;SDS011;76065;47.182;27.506;2024-03-25T05:41:09;16.98;;;9.30;;
85640;SDS011;76065;47.182;27.506;2024-03-25T05:43:35;14.02;;;7.68;;
85640;SDS011;76065;47.182;27.506;2024-03-25T05:46:01;14.35;;;7.63;;
85640;SDS011;76065;47.182;27.506;2024-03-25T05:48:27;14.05;;;8.05;;
85640;SDS011;76065;47.182;27.506;2024-03-25T05:50:57;12.65;;;7.50;;
85640;SDS011;76065;47.182;27.506;2024-03-25T05:53:32;14.68;;;7.78;;
85640;SDS011;76065;47.182;27.506;2024-03-25T05:55:58;15.00;;;7.70;;
85640;SDS011;76065;47.182;27.506;2024-03-25T05:58:25;14.60;;;7.68;;
85640;SDS011;76065;47.182;27.506;2024-03-25T06:00:51;13.50;;;8.63;;
85640;SDS011;76065;47.182;27.506;2024-03-25T06:03:20;13.10;;;7.32;;
85640;SDS011;76065;47.182;27.506;2024-03-25T06:05:46;14.57;;;7.53;;
85640;SDS011;76065;47.182;27.506;2024-03-25T06:08:12;13.07;;;7.07;;
85640;SDS011;76065;47.182;27.506;2024-03-25T06:10:51;14.55;;;7.07;;
85640;SDS011;76065;47.182;27.506;2024-03-25T06:13:17;15.10;;;7.88;;
85640;SDS011;76065;47.182;27.506;2024-03-25T06:15:43;15.90;;;9.23;;
85640;SDS011;76065;47.182;27.506;2024-03-25T06:18:08;18.85;;;9.45;;
85640;SDS011;76065;47.182;27.506;2024-03-25T06:20:34;13.57;;;8.15;;
85640;SDS011;76065;47.182;27.506;2024-03-25T06:23:00;12.55;;;6.97;;
85640;SDS011;76065;47.182;27.506;2024-03-25T06:25:26;15.35;;;8.32;;
85640;SDS011;76065;47.182;27.506;2024-03-25T06:27:53;15.32;;;8.93;;
85640;SDS011;76065;47.182;27.506;2024-03-25T06:30:19;11.98;;;7.07;;
85640;SDS011;76065;47.182;27.506;2024-03-25T06:33:03;13.07;;;7.57;;
85640;SDS011;76065;47.182;27.506;2024-03-25T06:35:48;18.25;;;7.47;;
85640;SDS011;76065;47.182;27.506;2024-03-25T06:38:13;18.33;;;7.43;;
85640;SDS011;76065;47.182;27.506;2024-03-25T06:40:39;12.20;;;7.38;;
85640;SDS011;76065;47.182;27.506;2024-03-25T06:43:05;12.10;;;7.15;;
85640;SDS011;76065;47.182;27.506;2024-03-25T06:45:30;15.15;;;7.20;;
85640;SDS011;76065;47.182;27.506;2024-03-25T06:47:57;13.80;;;7.25;;
85640;SDS011;76065;47.182;27.506;2024-03-25T06:50:23;14.13;;;7.85;;
85640;SDS011;76065;47.182;27.506;2024-03-25T06:52:49;15.93;;;7.60;;
85640;SDS011;76065;47.182;27.506;2024-03-25T06:55:15;11.55;;;6.40;;
85640;SDS011;76065;47.182;27.506;2024-03-25T06:57:41;15.43;;;7.70;;
85640;SDS011;76065;47.182;27.506;2024-03-25T07:00:06;12.40;;;7.25;;
85640;SDS011;76065;47.182;27.506;2024-03-25T07:02:38;15.35;;;7.55;;
85640;SDS011;76065;47.182;27.506;2024-03-25T07:05:04;13.57;;;7.13;;
85640;SDS011;76065;47.182;27.506;2024-03-25T07:07:30;13.45;;;6.60;;
85640;SDS011;76065;47.182;27.506;2024-03-25T07:09:56;15.68;;;7.53;;
85640;SDS011;76065;47.182;27.506;2024-03-25T07:12:22;14.32;;;6.95;;
85640;SDS011;76065;47.182;27.506;2024-03-25T07:14:47;10.90;;;6.78;;
85640;SDS011;76065;47.182;27.506;2024-03-25T07:17:13;11.10;;;5.95;;
85640;SDS011;76065;47.182;27.506;2024-03-25T07:19:39;12.10;;;6.18;;
85640;SDS011;76065;47.182;27.506;2024-03-25T07:22:04;13.10;;;6.45;;
85640;SDS011;76065;47.182;27.506;2024-03-25T07:24:30;12.98;;;6.63;;
85640;SDS011;76065;47.182;27.506;2024-03-25T07:26:55;12.38;;;6.63;;
85640;SDS011;76065;47.182;27.506;2024-03-25T07:29:21;11.55;;;6.68;;
85640;SDS011;76065;47.182;27.506;2024-03-25T07:31:47;11.70;;;5.95;;
85640;SDS011;76065;47.182;27.506;2024-03-25T07:34:12;14.70;;;7.40;;
85640;SDS011;76065;47.182;27.506;2024-03-25T07:36:38;11.98;;;6.65;;
85640;SDS011;76065;47.182;27.506;2024-03-25T07:39:04;12.52;;;7.20;;
85640;SDS011;76065;47.182;27.506;2024-03-25T07:41:36;12.85;;;7.07;;
85640;SDS011;76065;47.182;27.506;2024-03-25T07:44:02;11.32;;;6.82;;
85640;SDS011;76065;47.182;27.506;2024-03-25T07:46:27;10.57;;;6.68;;
85640;SDS011;76065;47.182;27.506;2024-03-25T07:48:53;10.60;;;6.20;;
85640;SDS011;76065;47.182;27.506;2024-03-25T07:51:18;13.93;;;6.88;;
85640;SDS011;76065;47.182;27.506;2024-03-25T07:53:44;13.57;;;6.68;;
85640;SDS011;76065;47.182;27.506;2024-03-25T07:56:10;12.95;;;6.50;;
85640;SDS011;76065;47.182;27.506;2024-03-25T07:58:35;11.02;;;6.55;;
85640;SDS011;76065;47.182;27.506;2024-03-25T08:01:01;11.88;;;6.47;;
85640;SDS011;76065;47.182;27.506;2024-03-25T08:03:26;10.20;;;6.38;;
85640;SDS011;76065;47.182;27.506;2024-03-25T08:05:52;16.35;;;7.43;;
85640;SDS011;76065;47.182;27.506;2024-03-25T08:08:18;12.82;;;6.25;;
85640;SDS011;76065;47.182;27.506;2024-03-25T08:10:43;10.02;;;5.68;;
85640;SDS011;76065;47.182;27.506;2024-03-25T08:13:10;12.93;;;6.95;;
85640;SDS011;76065;47.182;27.506;2024-03-25T08:15:35;12.57;;;6.40;;
85640;SDS011;76065;47.182;27.506;2024-03-25T08:18:02;10.95;;;6.93;;
85640;SDS011;76065;47.182;27.506;2024-03-25T08:20:28;9.60;;;5.60;;
85640;SDS011;76065;47.182;27.506;2024-03-25T08:22:53;10.35;;;5.45;;
85640;SDS011;76065;47.182;27.506;2024-03-25T08:25:19;18.58;;;5.88;;
85640;SDS011;76065;47.182;27.506;2024-03-25T08:27:45;9.82;;;5.50;;
85640;SDS011;76065;47.182;27.506;2024-03-25T08:30:10;13.80;;;5.78;;
85640;SDS011;76065;47.182;27.506;2024-03-25T08:32:36;10.75;;;5.60;;
85640;SDS011;76065;47.182;27.506;2024-03-25T08:35:02;10.48;;;6.18;;
85640;SDS011;76065;47.182;27.506;2024-03-25T08:37:27;13.05;;;5.80;;
85640;SDS011;76065;47.182;27.506;2024-03-25T08:39:53;9.30;;;5.55;;
85640;SDS011;76065;47.182;27.506;2024-03-25T08:42:19;9.65;;;5.35;;
85640;SDS011;76065;47.182;27.506;2024-03-25T08:44:46;7.35;;;4.75;;
85640;SDS011;76065;47.182;27.506;2024-03-25T08:47:12;13.40;;;6.18;;
85640;SDS011;76065;47.182;27.506;2024-03-25T08:49:37;9.55;;;5.00;;
85640;SDS011;76065;47.182;27.506;2024-03-25T08:52:03;8.23;;;4.85;;
85640;SDS011;76065;47.182;27.506;2024-03-25T08:54:29;7.65;;;4.30;;
85640;SDS011;76065;47.182;27.506;2024-03-25T08:56:54;6.65;;;4.18;;
85640;SDS011;76065;47.182;27.506;2024-03-25T08:59:20;7.05;;;4.75;;
85640;SDS011;76065;47.182;27.506;2024-03-25T09:01:46;7.30;;;3.63;;
85640;SDS011;76065;47.182;27.506;2024-03-25T09:04:11;6.32;;;4.50;;
85640;SDS011;76065;47.182;27.506;2024-03-25T09:06:37;7.15;;;4.32;;
85640;SDS011;76065;47.182;27.506;2024-03-25T09:09:03;13.25;;;5.78;;
85640;SDS011;76065;47.182;27.506;2024-03-25T09:11:47;6.78;;;4.72;;
85640;SDS011;76065;47.182;27.506;2024-03-25T09:14:12;7.97;;;4.57;;
85640;SDS011;76065;47.182;27.506;2024-03-25T09:16:38;9.63;;;4.15;;
85640;SDS011;76065;47.182;27.506;2024-03-25T09:19:04;7.53;;;3.97;;
85640;SDS011;76065;47.182;27.506;2024-03-25T09:21:29;8.05;;;3.83;;
85640;SDS011;76065;47.182;27.506;2024-03-25T09:23:55;6.35;;;3.58;;
85640;SDS011;76065;47.182;27.506;2024-03-25T09:26:22;7.47;;;4.47;;
85640;SDS011;76065;47.182;27.506;2024-03-25T09:28:49;7.60;;;3.80;;
85640;SDS011;76065;47.182;27.506;2024-03-25T09:31:14;6.13;;;3.90;;
85640;SDS011;76065;47.182;27.506;2024-03-25T09:33:40;7.25;;;3.60;;
85640;SDS011;76065;47.182;27.506;2024-03-25T09:36:05;8.00;;;4.45;;
85640;SDS011;76065;47.182;27.506;2024-03-25T09:38:31;6.65;;;3.25;;
85640;SDS011;76065;47.182;27.506;2024-03-25T09:40:57;4.13;;;3.35;;
85640;SDS011;76065;47.182;27.506;2024-03-25T09:43:24;4.55;;;3.13;;
85640;SDS011;76065;47.182;27.506;2024-03-25T09:45:53;4.82;;;3.20;;
85640;SDS011;76065;47.182;27.506;2024-03-25T09:48:21;4.80;;;2.92;;
85640;SDS011;76065;47.182;27.506;2024-03-25T09:50:46;6.18;;;3.58;;
85640;SDS011;76065;47.182;27.506;2024-03-25T09:53:14;6.55;;;3.03;;
85640;SDS011;76065;47.182;27.506;2024-03-25T09:55:39;6.30;;;2.78;;
85640;SDS011;76065;47.182;27.506;2024-03-25T09:58:05;5.93;;;3.30;;
85640;SDS011;76065;47.182;27.506;2024-03-25T10:00:31;4.00;;;2.53;;
85640;SDS011;76065;47.182;27.506;2024-03-25T10:02:57;8.68;;;3.38;;
85640;SDS011;76065;47.182;27.506;2024-03-25T10:05:22;5.43;;;2.85;;
85640;SDS011;76065;47.182;27.506;2024-03-25T10:07:48;5.25;;;2.95;;
85640;SDS011;76065;47.182;27.506;2024-03-25T10:10:18;5.60;;;3.33;;
85640;SDS011;76065;47.182;27.506;2024-03-25T10:12:45;5.50;;;2.97;;
85640;SDS011;76065;47.182;27.506;2024-03-25T10:15:19;5.65;;;3.22;;
85640;SDS011;76065;47.182;27.506;2024-03-25T10:17:48;5.93;;;2.97;;
85640;SDS011;76065;47.182;27.506;2024-03-25T10:20:15;5.00;;;2.70;;
85640;SDS011;76065;47.182;27.506;2024-03-25T10:22:44;4.55;;;2.80;;
85640;SDS011;76065;47.182;27.506;2024-03-25T10:25:25;3.75;;;2.25;;
85640;SDS011;76065;47.182;27.506;2024-03-25T10:30:25;5.85;;;3.05;;
85640;SDS011;76065;47.182;27.506;2024-03-25T10:33:04;5.45;;;3.33;;
85640;SDS011;76065;47.182;27.506;2024-03-25T10:35:31;5.65;;;3.70;;
85640;SDS011;76065;47.182;27.506;2024-03-25T10:38:00;5.60;;;3.40;;
85640;SDS011;76065;47.182;27.506;2024-03-25T10:40:29;6.03;;;3.25;;
85640;SDS011;76065;47.182;27.506;2024-03-25T10:43:02;6.18;;;3.42;;
85640;SDS011;76065;47.182;27.506;2024-03-25T10:45:32;4.78;;;2.65;;
85640;SDS011;76065;47.182;27.506;2024-03-25T10:48:02;4.50;;;2.83;;
85640;SDS011;76065;47.182;27.506;2024-03-25T10:50:31;5.32;;;2.92;;
85640;SDS011;76065;47.182;27.506;2024-03-25T10:53:00;4.45;;;3.33;;
85640;SDS011;76065;47.182;27.506;2024-03-25T10:55:27;4.10;;;2.25;;
85640;SDS011;76065;47.182;27.506;2024-03-25T10:57:54;3.10;;;2.03;;
85640;SDS011;76065;47.182;27.506;2024-03-25T11:00:22;4.72;;;2.90;;
85640;SDS011;76065;47.182;27.506;2024-03-25T11:02:48;3.55;;;2.10;;
85640;SDS011;76065;47.182;27.506;2024-03-25T11:05:14;3.28;;;1.95;;
85640;SDS011;76065;47.182;27.506;2024-03-25T11:07:40;3.03;;;2.20;;
85640;SDS011;76065;47.182;27.506;2024-03-25T11:10:08;4.75;;;2.05;;
85640;SDS011;76065;47.182;27.506;2024-03-25T11:12:40;6.93;;;1.83;;
85640;SDS011;76065;47.182;27.506;2024-03-25T11:15:07;3.92;;;2.00;;
85640;SDS011;76065;47.182;27.506;2024-03-25T11:17:34;4.75;;;1.85;;
85640;SDS011;76065;47.182;27.506;2024-03-25T11:20:07;3.50;;;2.53;;
85640;SDS011;76065;47.182;27.506;2024-03-25T11:22:46;3.70;;;2.55;;
85640;SDS011;76065;47.182;27.506;2024-03-25T11:25:17;3.92;;;2.45;;
85640;SDS011;76065;47.182;27.506;2024-03-25T11:27:43;4.88;;;2.22;;
85640;SDS011;76065;47.182;27.506;2024-03-25T11:30:10;3.10;;;2.10;;
85640;SDS011;76065;47.182;27.506;2024-03-25T11:33:09;11.52;;;2.15;;
85640;SDS011;76065;47.182;27.506;2024-03-25T11:35:29;6.35;;;2.42;;
85640;SDS011;76065;47.182;27.506;2024-03-25T11:37:55;3.97;;;1.75;;
85640;SDS011;76065;47.182;27.506;2024-03-25T11:40:21;4.68;;;2.10;;
85640;SDS011;76065;47.182;27.506;2024-03-25T11:42:47;4.30;;;2.00;;
85640;SDS011;76065;47.182;27.506;2024-03-25T11:45:13;3.60;;;1.85;;
85640;SDS011;76065;47.182;27.506;2024-03-25T11:47:44;3.53;;;2.00;;
85640;SDS011;76065;47.182;27.506;2024-03-25T11:50:11;5.30;;;2.25;;
85640;SDS011;76065;47.182;27.506;2024-03-25T11:52:42;3.33;;;1.77;;
85640;SDS011;76065;47.182;27.506;2024-03-25T11:55:08;4.10;;;1.55;;
85640;SDS011;76065;47.182;27.506;2024-03-25T11:57:35;3.72;;;1.50;;
85640;SDS011;76065;47.182;27.506;2024-03-25T12:00:02;3.85;;;1.70;;
85640;SDS011;76065;47.182;27.506;2024-03-25T12:02:32;4.28;;;1.70;;
85640;SDS011;76065;47.182;27.506;2024-03-25T12:04:58;3.13;;;1.63;;
85640;SDS011;76065;47.182;27.506;2024-03-25T12:07:24;2.78;;;1.40;;
85640;SDS011;76065;47.182;27.506;2024-03-25T12:09:49;3.00;;;1.50;;
85640;SDS011;76065;47.182;27.506;2024-03-25T12:12:33;4.28;;;2.40;;
85640;SDS011;76065;47.182;27.506;2024-03-25T12:15:04;3.92;;;1.67;;
85640;SDS011;76065;47.182;27.506;2024-03-25T12:17:32;3.88;;;1.60;;
85640;SDS011;76065;47.182;27.506;2024-03-25T12:20:05;4.30;;;2.33;;
85640;SDS011;76065;47.182;27.506;2024-03-25T12:22:37;4.97;;;1.73;;
85640;SDS011;76065;47.182;27.506;2024-03-25T12:25:03;4.70;;;1.83;;
85640;SDS011;76065;47.182;27.506;2024-03-25T12:27:34;4.57;;;2.10;;
85640;SDS011;76065;47.182;27.506;2024-03-25T12:30:02;4.38;;;2.55;;
85640;SDS011;76065;47.182;27.506;2024-03-25T12:32:39;3.97;;;2.10;;
85640;SDS011;76065;47.182;27.506;2024-03-25T12:35:10;4.28;;;2.25;;
85640;SDS011;76065;47.182;27.506;2024-03-25T12:37:37;2.97;;;1.73;;
85640;SDS011;76065;47.182;27.506;2024-03-25T12:40:06;4.72;;;1.92;;
85640;SDS011;76065;47.182;27.506;2024-03-25T12:42:34;6.22;;;1.80;;
85640;SDS011;76065;47.182;27.506;2024-03-25T12:45:00;2.55;;;1.67;;
85640;SDS011;76065;47.182;27.506;2024-03-25T12:47:25;4.15;;;1.60;;
85640;SDS011;76065;47.182;27.506;2024-03-25T12:49:51;4.18;;;1.90;;
85640;SDS011;76065;47.182;27.506;2024-03-25T12:52:17;3.83;;;1.85;;
85640;SDS011;76065;47.182;27.506;2024-03-25T12:54:42;4.82;;;1.70;;
85640;SDS011;76065;47.182;27.506;2024-03-25T12:57:08;2.85;;;1.77;;
85640;SDS011;76065;47.182;27.506;2024-03-25T12:59:34;3.10;;;1.75;;
85640;SDS011;76065;47.182;27.506;2024-03-25T13:02:00;7.68;;;2.95;;
85640;SDS011;76065;47.182;27.506;2024-03-25T13:04:26;3.88;;;1.80;;
85640;SDS011;76065;47.182;27.506;2024-03-25T13:06:52;3.97;;;1.63;;
85640;SDS011;76065;47.182;27.506;2024-03-25T13:09:17;2.72;;;1.70;;
85640;SDS011;76065;47.182;27.506;2024-03-25T13:11:43;3.72;;;1.90;;
85640;SDS011;76065;47.182;27.506;2024-03-25T13:14:11;4.57;;;2.10;;
85640;SDS011;76065;47.182;27.506;2024-03-25T13:16:38;3.85;;;1.85;;
85640;SDS011;76065;47.182;27.506;2024-03-25T13:19:03;6.30;;;2.22;;
85640;SDS011;76065;47.182;27.506;2024-03-25T13:21:29;4.43;;;1.98;;
85640;SDS011;76065;47.182;27.506;2024-03-25T13:23:55;3.78;;;1.70;;
85640;SDS011;76065;47.182;27.506;2024-03-25T13:26:21;5.53;;;1.48;;
85640;SDS011;76065;47.182;27.506;2024-03-25T13:28:47;5.57;;;2.00;;
85640;SDS011;76065;47.182;27.506;2024-03-25T13:31:12;3.58;;;1.70;;
85640;SDS011;76065;47.182;27.506;2024-03-25T13:33:38;5.22;;;1.60;;
85640;SDS011;76065;47.182;27.506;2024-03-25T13:36:05;2.55;;;1.70;;
85640;SDS011;76065;47.182;27.506;2024-03-25T13:38:31;4.78;;;2.65;;
85640;SDS011;76065;47.182;27.506;2024-03-25T13:40:57;3.63;;;2.40;;
85640;SDS011;76065;47.182;27.506;2024-03-25T13:43:24;3.88;;;2.83;;
85640;SDS011;76065;47.182;27.506;2024-03-25T13:45:50;5.07;;;1.75;;
85640;SDS011;76065;47.182;27.506;2024-03-25T13:48:15;4.43;;;1.90;;
85640;SDS011;76065;47.182;27.506;2024-03-25T13:50:41;3.60;;;1.83;;
85640;SDS011;76065;47.182;27.506;2024-03-25T13:53:08;2.75;;;1.70;;
85640;SDS011;76065;47.182;27.506;2024-03-25T13:55:34;4.78;;;2.10;;
85640;SDS011;76065;47.182;27.506;2024-03-25T13:57:59;4.55;;;2.25;;
85640;SDS011;76065;47.182;27.506;2024-03-25T14:00:25;4.85;;;2.10;;
85640;SDS011;76065;47.182;27.506;2024-03-25T14:02:56;5.35;;;1.90;;
85640;SDS011;76065;47.182;27.506;2024-03-25T14:05:23;3.97;;;2.08;;
85640;SDS011;76065;47.182;27.506;2024-03-25T14:07:49;3.75;;;1.92;;
85640;SDS011;76065;47.182;27.506;2024-03-25T14:10:15;2.80;;;1.95;;
85640;SDS011;76065;47.182;27.506;2024-03-25T14:12:41;5.43;;;2.85;;
85640;SDS011;76065;47.182;27.506;2024-03-25T14:15:07;4.15;;;2.17;;
85640;SDS011;76065;47.182;27.506;2024-03-25T14:17:33;3.67;;;2.13;;
85640;SDS011;76065;47.182;27.506;2024-03-25T14:19:59;4.45;;;2.30;;
85640;SDS011;76065;47.182;27.506;2024-03-25T14:22:25;4.20;;;2.15;;
85640;SDS011;76065;47.182;27.506;2024-03-25T14:24:50;5.18;;;1.80;;
85640;SDS011;76065;47.182;27.506;2024-03-25T14:27:21;6.18;;;2.53;;